sensor_id;sensor_type;location;lat;lon;timestamp;temperature;humidity
27657;DHT22;15066;46.134;9.476;2022-09-03T00:00:10;21.70;90.20
27657;DHT22;15066;46.134;9.476;2022-09-03T00:02:51;21.70;90.10
27657;DHT22;15066;46.134;9.476;2022-09-03T00:05:37;21.70;90.10
27657;DHT22;15066;46.134;9.476;2022-09-03T00:08:26;21.60;90.40
27657;DHT22;15066;46.134;9.476;2022-09-03T00:11:02;21.60;90.40
27657;DHT22;15066;46.134;9.476;2022-09-03T00:16:23;21.60;90.50
27657;DHT22;15066;46.134;9.476;2022-09-03T00:18:57;21.50;90.30
27657;DHT22;15066;46.134;9.476;2022-09-03T00:21:38;21.40;90.80
27657;DHT22;15066;46.134;9.476;2022-09-03T00:24:05;21.40;90.50
27657;DHT22;15066;46.134;9.476;2022-09-03T00:26:34;21.50;90.70
27657;DHT22;15066;46.134;9.476;2022-09-03T00:29:11;21.50;91.00
27657;DHT22;15066;46.134;9.476;2022-09-03T00:31:41;21.40;91.30
27657;DHT22;15066;46.134;9.476;2022-09-03T00:36:44;21.50;91.30
27657;DHT22;15066;46.134;9.476;2022-09-03T00:39:18;21.60;91.60
27657;DHT22;15066;46.134;9.476;2022-09-03T00:50:31;21.30;92.20
27657;DHT22;15066;46.134;9.476;2022-09-03T00:53:07;21.30;92.10
27657;DHT22;15066;46.134;9.476;2022-09-03T00:55:48;21.50;92.20
27657;DHT22;15066;46.134;9.476;2022-09-03T01:01:27;21.50;91.80
27657;DHT22;15066;46.134;9.476;2022-09-03T01:04:23;21.50;92.10
27657;DHT22;15066;46.134;9.476;2022-09-03T01:06:58;21.50;92.40
27657;DHT22;15066;46.134;9.476;2022-09-03T01:09:29;21.50;92.70
27657;DHT22;15066;46.134;9.476;2022-09-03T01:14:37;21.40;92.30
27657;DHT22;15066;46.134;9.476;2022-09-03T01:25:41;21.40;93.30
27657;DHT22;15066;46.134;9.476;2022-09-03T01:33:55;21.50;92.90
27657;DHT22;15066;46.134;9.476;2022-09-03T01:36:44;21.50;93.10
27657;DHT22;15066;46.134;9.476;2022-09-03T01:39:13;21.40;93.60
27657;DHT22;15066;46.134;9.476;2022-09-03T01:41:53;21.30;93.60
27657;DHT22;15066;46.134;9.476;2022-09-03T01:53:33;21.20;94.70
27657;DHT22;15066;46.134;9.476;2022-09-03T01:56:16;21.20;94.70
27657;DHT22;15066;46.134;9.476;2022-09-03T01:58:44;21.30;94.70
27657;DHT22;15066;46.134;9.476;2022-09-03T02:01:21;21.30;95.20
27657;DHT22;15066;46.134;9.476;2022-09-03T02:03:48;21.30;95.50
27657;DHT22;15066;46.134;9.476;2022-09-03T02:06:17;21.20;95.50
27657;DHT22;15066;46.134;9.476;2022-09-03T02:08:46;21.20;95.50
27657;DHT22;15066;46.134;9.476;2022-09-03T02:11:13;21.20;95.90
27657;DHT22;15066;46.134;9.476;2022-09-03T02:13:49;21.30;96.00
27657;DHT22;15066;46.134;9.476;2022-09-03T02:16:22;21.20;95.90
27657;DHT22;15066;46.134;9.476;2022-09-03T02:19:14;21.20;96.70
27657;DHT22;15066;46.134;9.476;2022-09-03T02:21:23;21.30;96.20
27657;DHT22;15066;46.134;9.476;2022-09-03T02:23:51;21.30;96.30
27657;DHT22;15066;46.134;9.476;2022-09-03T02:26:22;21.40;95.50
27657;DHT22;15066;46.134;9.476;2022-09-03T02:28:52;21.40;94.40
27657;DHT22;15066;46.134;9.476;2022-09-03T02:31:20;21.20;94.70
27657;DHT22;15066;46.134;9.476;2022-09-03T02:33:49;21.20;95.40
27657;DHT22;15066;46.134;9.476;2022-09-03T02:36:20;21.30;95.20
27657;DHT22;15066;46.134;9.476;2022-09-03T02:39:07;21.30;95.60
27657;DHT22;15066;46.134;9.476;2022-09-03T02:41:35;21.30;95.70
27657;DHT22;15066;46.134;9.476;2022-09-03T02:44:29;21.20;96.20
27657;DHT22;15066;46.134;9.476;2022-09-03T02:47:03;21.20;95.90
27657;DHT22;15066;46.134;9.476;2022-09-03T02:49:31;21.20;95.70
27657;DHT22;15066;46.134;9.476;2022-09-03T02:52:01;21.20;95.60
27657;DHT22;15066;46.134;9.476;2022-09-03T02:54:39;21.20;95.20
27657;DHT22;15066;46.134;9.476;2022-09-03T02:57:09;21.10;95.40
27657;DHT22;15066;46.134;9.476;2022-09-03T02:59:37;21.20;95.20
27657;DHT22;15066;46.134;9.476;2022-09-03T03:02:05;21.10;95.60
27657;DHT22;15066;46.134;9.476;2022-09-03T03:04:34;21.20;96.00
27657;DHT22;15066;46.134;9.476;2022-09-03T03:07:01;21.30;95.90
27657;DHT22;15066;46.134;9.476;2022-09-03T03:09:29;21.30;95.60
27657;DHT22;15066;46.134;9.476;2022-09-03T03:11:57;21.20;96.00
27657;DHT22;15066;46.134;9.476;2022-09-03T03:14:24;21.10;95.50
27657;DHT22;15066;46.134;9.476;2022-09-03T03:16:52;21.20;95.70
27657;DHT22;15066;46.134;9.476;2022-09-03T03:19:19;21.20;96.90
27657;DHT22;15066;46.134;9.476;2022-09-03T03:21:47;21.30;97.90
27657;DHT22;15066;46.134;9.476;2022-09-03T03:24:14;21.30;99.10
27657;DHT22;15066;46.134;9.476;2022-09-03T03:26:42;21.20;98.80
27657;DHT22;15066;46.134;9.476;2022-09-03T03:29:17;21.20;99.50
27657;DHT22;15066;46.134;9.476;2022-09-03T03:31:43;21.10;99.90
27657;DHT22;15066;46.134;9.476;2022-09-03T03:34:12;21.00;99.90
27657;DHT22;15066;46.134;9.476;2022-09-03T03:36:39;20.80;99.90
27657;DHT22;15066;46.134;9.476;2022-09-03T03:39:07;20.70;99.90
27657;DHT22;15066;46.134;9.476;2022-09-03T03:41:39;20.60;99.90
27657;DHT22;15066;46.134;9.476;2022-09-03T03:44:06;20.50;99.90
27657;DHT22;15066;46.134;9.476;2022-09-03T03:46:36;20.40;99.90
27657;DHT22;15066;46.134;9.476;2022-09-03T03:49:05;20.30;99.90
27657;DHT22;15066;46.134;9.476;2022-09-03T03:51:33;20.20;99.90
27657;DHT22;15066;46.134;9.476;2022-09-03T03:54:01;20.10;99.90
27657;DHT22;15066;46.134;9.476;2022-09-03T03:56:28;20.20;99.90
27657;DHT22;15066;46.134;9.476;2022-09-03T03:58:58;20.20;99.90
27657;DHT22;15066;46.134;9.476;2022-09-03T04:01:27;20.20;99.90
27657;DHT22;15066;46.134;9.476;2022-09-03T04:03:56;20.10;99.90
27657;DHT22;15066;46.134;9.476;2022-09-03T04:06:24;20.00;99.90
27657;DHT22;15066;46.134;9.476;2022-09-03T04:08:51;19.90;99.90
27657;DHT22;15066;46.134;9.476;2022-09-03T04:11:21;19.80;99.90
27657;DHT22;15066;46.134;9.476;2022-09-03T04:13:50;19.70;99.90
27657;DHT22;15066;46.134;9.476;2022-09-03T04:16:23;19.60;99.90
27657;DHT22;15066;46.134;9.476;2022-09-03T04:18:52;19.60;99.90
27657;DHT22;15066;46.134;9.476;2022-09-03T04:21:23;19.50;99.90
27657;DHT22;15066;46.134;9.476;2022-09-03T04:23:52;19.50;99.90
27657;DHT22;15066;46.134;9.476;2022-09-03T04:26:22;19.50;99.90
27657;DHT22;15066;46.134;9.476;2022-09-03T04:28:50;19.50;99.90
27657;DHT22;15066;46.134;9.476;2022-09-03T04:31:19;19.40;99.90
27657;DHT22;15066;46.134;9.476;2022-09-03T04:33:48;19.40;99.90
27657;DHT22;15066;46.134;9.476;2022-09-03T04:36:19;19.40;99.90
27657;DHT22;15066;46.134;9.476;2022-09-03T04:38:49;19.30;99.90
27657;DHT22;15066;46.134;9.476;2022-09-03T04:41:20;19.30;99.90
27657;DHT22;15066;46.134;9.476;2022-09-03T04:43:51;19.30;99.90
27657;DHT22;15066;46.134;9.476;2022-09-03T04:46:20;19.20;99.90
27657;DHT22;15066;46.134;9.476;2022-09-03T04:48:53;19.30;99.90
27657;DHT22;15066;46.134;9.476;2022-09-03T04:51:25;19.40;99.90
27657;DHT22;15066;46.134;9.476;2022-09-03T04:53:57;19.30;99.90
27657;DHT22;15066;46.134;9.476;2022-09-03T04:56:30;19.40;99.90
27657;DHT22;15066;46.134;9.476;2022-09-03T04:59:04;19.40;99.90
27657;DHT22;15066;46.134;9.476;2022-09-03T05:01:33;19.40;99.90
27657;DHT22;15066;46.134;9.476;2022-09-03T05:04:02;19.40;99.90
27657;DHT22;15066;46.134;9.476;2022-09-03T05:06:30;19.40;99.90
27657;DHT22;15066;46.134;9.476;2022-09-03T05:08:59;19.40;99.90
27657;DHT22;15066;46.134;9.476;2022-09-03T05:11:27;19.40;99.90
27657;DHT22;15066;46.134;9.476;2022-09-03T05:13:57;19.50;99.90
27657;DHT22;15066;46.134;9.476;2022-09-03T05:16:25;19.50;99.90
27657;DHT22;15066;46.134;9.476;2022-09-03T05:18:55;19.50;99.90
27657;DHT22;15066;46.134;9.476;2022-09-03T05:21:25;19.30;99.90
27657;DHT22;15066;46.134;9.476;2022-09-03T05:23:53;19.40;99.90
27657;DHT22;15066;46.134;9.476;2022-09-03T05:26:26;19.50;99.90
27657;DHT22;15066;46.134;9.476;2022-09-03T05:28:56;19.60;99.90
27657;DHT22;15066;46.134;9.476;2022-09-03T05:31:27;19.40;99.90
27657;DHT22;15066;46.134;9.476;2022-09-03T05:33:58;19.30;99.90
27657;DHT22;15066;46.134;9.476;2022-09-03T05:36:28;19.40;99.90
27657;DHT22;15066;46.134;9.476;2022-09-03T05:38:58;19.40;99.90
27657;DHT22;15066;46.134;9.476;2022-09-03T05:41:28;19.40;99.90
27657;DHT22;15066;46.134;9.476;2022-09-03T05:43:57;19.50;99.90
27657;DHT22;15066;46.134;9.476;2022-09-03T05:46:27;19.50;99.90
27657;DHT22;15066;46.134;9.476;2022-09-03T05:49:00;19.50;99.90
27657;DHT22;15066;46.134;9.476;2022-09-03T05:51:29;19.50;99.90
27657;DHT22;15066;46.134;9.476;2022-09-03T05:53:58;19.50;99.90
27657;DHT22;15066;46.134;9.476;2022-09-03T05:56:27;19.60;99.90
27657;DHT22;15066;46.134;9.476;2022-09-03T05:58:57;19.50;99.90
27657;DHT22;15066;46.134;9.476;2022-09-03T06:01:29;19.50;99.90
27657;DHT22;15066;46.134;9.476;2022-09-03T06:04:05;19.40;99.90
27657;DHT22;15066;46.134;9.476;2022-09-03T06:06:36;19.30;99.90
27657;DHT22;15066;46.134;9.476;2022-09-03T06:09:06;19.30;99.90
27657;DHT22;15066;46.134;9.476;2022-09-03T06:11:35;19.50;99.90
27657;DHT22;15066;46.134;9.476;2022-09-03T06:14:05;19.50;99.90
27657;DHT22;15066;46.134;9.476;2022-09-03T06:16:43;19.60;99.90
27657;DHT22;15066;46.134;9.476;2022-09-03T06:19:08;19.50;99.90
27657;DHT22;15066;46.134;9.476;2022-09-03T06:21:37;19.40;99.90
27657;DHT22;15066;46.134;9.476;2022-09-03T06:24:13;19.40;99.90
27657;DHT22;15066;46.134;9.476;2022-09-03T06:26:41;19.30;99.90
27657;DHT22;15066;46.134;9.476;2022-09-03T06:29:09;19.30;99.90
27657;DHT22;15066;46.134;9.476;2022-09-03T06:31:37;19.30;99.90
27657;DHT22;15066;46.134;9.476;2022-09-03T06:34:06;19.30;99.90
27657;DHT22;15066;46.134;9.476;2022-09-03T06:36:36;19.30;99.90
27657;DHT22;15066;46.134;9.476;2022-09-03T06:39:03;19.30;99.90
27657;DHT22;15066;46.134;9.476;2022-09-03T06:41:32;19.20;99.90
27657;DHT22;15066;46.134;9.476;2022-09-03T06:44:03;19.20;99.90
27657;DHT22;15066;46.134;9.476;2022-09-03T06:46:34;19.10;99.90
27657;DHT22;15066;46.134;9.476;2022-09-03T06:49:03;19.20;99.90
27657;DHT22;15066;46.134;9.476;2022-09-03T06:51:32;19.10;99.90
27657;DHT22;15066;46.134;9.476;2022-09-03T06:54:03;19.00;99.90
27657;DHT22;15066;46.134;9.476;2022-09-03T06:56:32;19.00;99.90
27657;DHT22;15066;46.134;9.476;2022-09-03T06:59:06;19.10;99.90
27657;DHT22;15066;46.134;9.476;2022-09-03T07:01:30;19.10;99.90
27657;DHT22;15066;46.134;9.476;2022-09-03T07:04:03;19.10;99.90
27657;DHT22;15066;46.134;9.476;2022-09-03T07:06:38;19.00;99.90
27657;DHT22;15066;46.134;9.476;2022-09-03T07:09:04;19.00;99.90
27657;DHT22;15066;46.134;9.476;2022-09-03T07:11:31;19.10;99.90
27657;DHT22;15066;46.134;9.476;2022-09-03T07:14:02;19.30;99.90
27657;DHT22;15066;46.134;9.476;2022-09-03T07:16:33;19.30;99.90
27657;DHT22;15066;46.134;9.476;2022-09-03T07:19:01;19.30;99.90
27657;DHT22;15066;46.134;9.476;2022-09-03T07:21:32;19.30;99.90
27657;DHT22;15066;46.134;9.476;2022-09-03T07:24:02;19.30;99.90
27657;DHT22;15066;46.134;9.476;2022-09-03T07:26:33;19.30;99.90
27657;DHT22;15066;46.134;9.476;2022-09-03T07:29:02;19.30;99.90
27657;DHT22;15066;46.134;9.476;2022-09-03T07:31:33;19.30;99.90
27657;DHT22;15066;46.134;9.476;2022-09-03T07:34:03;19.30;99.90
27657;DHT22;15066;46.134;9.476;2022-09-03T07:36:40;19.40;99.90
27657;DHT22;15066;46.134;9.476;2022-09-03T07:39:09;19.50;99.90
27657;DHT22;15066;46.134;9.476;2022-09-03T07:41:40;19.40;99.90
27657;DHT22;15066;46.134;9.476;2022-09-03T07:44:17;19.40;99.90
27657;DHT22;15066;46.134;9.476;2022-09-03T07:46:49;19.40;99.90
27657;DHT22;15066;46.134;9.476;2022-09-03T07:49:17;19.40;99.90
27657;DHT22;15066;46.134;9.476;2022-09-03T07:51:45;19.40;99.90
27657;DHT22;15066;46.134;9.476;2022-09-03T07:54:16;19.40;99.90
27657;DHT22;15066;46.134;9.476;2022-09-03T07:56:43;19.40;99.90
27657;DHT22;15066;46.134;9.476;2022-09-03T07:59:11;19.40;99.90
27657;DHT22;15066;46.134;9.476;2022-09-03T08:01:38;19.30;99.90
27657;DHT22;15066;46.134;9.476;2022-09-03T08:04:06;19.20;99.90
27657;DHT22;15066;46.134;9.476;2022-09-03T08:06:34;19.20;99.90
27657;DHT22;15066;46.134;9.476;2022-09-03T08:09:04;19.20;99.90
27657;DHT22;15066;46.134;9.476;2022-09-03T08:11:35;19.30;99.90
27657;DHT22;15066;46.134;9.476;2022-09-03T08:14:05;19.30;99.90
27657;DHT22;15066;46.134;9.476;2022-09-03T08:16:38;19.40;99.90
27657;DHT22;15066;46.134;9.476;2022-09-03T08:19:07;19.40;99.90
27657;DHT22;15066;46.134;9.476;2022-09-03T08:21:34;19.50;99.90
27657;DHT22;15066;46.134;9.476;2022-09-03T08:24:02;19.50;99.90
27657;DHT22;15066;46.134;9.476;2022-09-03T08:26:37;19.60;99.90
27657;DHT22;15066;46.134;9.476;2022-09-03T08:29:00;19.60;99.90
27657;DHT22;15066;46.134;9.476;2022-09-03T08:31:29;19.50;99.90
27657;DHT22;15066;46.134;9.476;2022-09-03T08:33:59;19.50;99.90
27657;DHT22;15066;46.134;9.476;2022-09-03T08:36:30;19.50;99.90
27657;DHT22;15066;46.134;9.476;2022-09-03T08:39:00;19.70;99.90
27657;DHT22;15066;46.134;9.476;2022-09-03T08:44:39;19.60;99.90
27657;DHT22;15066;46.134;9.476;2022-09-03T08:47:22;19.60;99.90
27657;DHT22;15066;46.134;9.476;2022-09-03T08:50:12;19.70;99.90
27657;DHT22;15066;46.134;9.476;2022-09-03T08:55:30;19.70;99.90
27657;DHT22;15066;46.134;9.476;2022-09-03T08:58:10;19.80;99.90
27657;DHT22;15066;46.134;9.476;2022-09-03T09:06:25;19.80;99.90
27657;DHT22;15066;46.134;9.476;2022-09-03T09:20:05;19.70;99.90
27657;DHT22;15066;46.134;9.476;2022-09-03T09:22:41;19.70;99.90
27657;DHT22;15066;46.134;9.476;2022-09-03T09:25:16;19.60;99.90
27657;DHT22;15066;46.134;9.476;2022-09-03T09:27:56;19.60;99.90
27657;DHT22;15066;46.134;9.476;2022-09-03T09:30:23;19.80;99.90
27657;DHT22;15066;46.134;9.476;2022-09-03T09:32:51;20.00;99.90
27657;DHT22;15066;46.134;9.476;2022-09-03T09:35:19;20.00;99.90
27657;DHT22;15066;46.134;9.476;2022-09-03T09:37:53;20.00;99.90
27657;DHT22;15066;46.134;9.476;2022-09-03T09:40:33;20.00;99.90
27657;DHT22;15066;46.134;9.476;2022-09-03T09:43:13;20.00;99.90
27657;DHT22;15066;46.134;9.476;2022-09-03T09:45:39;19.90;99.90
27657;DHT22;15066;46.134;9.476;2022-09-03T09:48:12;19.80;99.90
27657;DHT22;15066;46.134;9.476;2022-09-03T09:50:38;19.70;99.90
27657;DHT22;15066;46.134;9.476;2022-09-03T09:53:10;19.80;99.90
27657;DHT22;15066;46.134;9.476;2022-09-03T09:58:24;19.90;99.90
27657;DHT22;15066;46.134;9.476;2022-09-03T10:01:20;19.90;99.90
27657;DHT22;15066;46.134;9.476;2022-09-03T10:03:26;19.80;99.90
27657;DHT22;15066;46.134;9.476;2022-09-03T10:06:06;19.80;99.90
27657;DHT22;15066;46.134;9.476;2022-09-03T10:09:04;19.90;99.90
27657;DHT22;15066;46.134;9.476;2022-09-03T10:11:34;19.90;99.90
27657;DHT22;15066;46.134;9.476;2022-09-03T10:14:33;20.00;99.90
27657;DHT22;15066;46.134;9.476;2022-09-03T10:16:41;20.00;99.90
27657;DHT22;15066;46.134;9.476;2022-09-03T10:19:15;20.10;99.90
27657;DHT22;15066;46.134;9.476;2022-09-03T10:27:19;20.20;99.90
27657;DHT22;15066;46.134;9.476;2022-09-03T10:29:49;20.30;99.90
27657;DHT22;15066;46.134;9.476;2022-09-03T10:35:20;20.40;99.90
27657;DHT22;15066;46.134;9.476;2022-09-03T10:37:48;20.40;99.90
27657;DHT22;15066;46.134;9.476;2022-09-03T10:40:33;20.40;99.90
27657;DHT22;15066;46.134;9.476;2022-09-03T10:54:10;20.50;99.90
27657;DHT22;15066;46.134;9.476;2022-09-03T11:00:11;20.50;99.90
27657;DHT22;15066;46.134;9.476;2022-09-03T11:05:21;20.60;99.90
27657;DHT22;15066;46.134;9.476;2022-09-03T11:08:00;20.60;99.90
27657;DHT22;15066;46.134;9.476;2022-09-03T11:10:32;20.60;99.90
27657;DHT22;15066;46.134;9.476;2022-09-03T11:15:55;20.70;99.90
27657;DHT22;15066;46.134;9.476;2022-09-03T11:18:32;20.70;99.90
27657;DHT22;15066;46.134;9.476;2022-09-03T11:21:03;20.90;99.90
27657;DHT22;15066;46.134;9.476;2022-09-03T11:23:34;20.80;99.90
27657;DHT22;15066;46.134;9.476;2022-09-03T11:26:05;20.80;99.90
27657;DHT22;15066;46.134;9.476;2022-09-03T11:32:03;20.90;99.90
27657;DHT22;15066;46.134;9.476;2022-09-03T11:34:46;20.90;99.90
27657;DHT22;15066;46.134;9.476;2022-09-03T11:37:22;21.00;99.90
27657;DHT22;15066;46.134;9.476;2022-09-03T11:42:29;21.10;99.90
27657;DHT22;15066;46.134;9.476;2022-09-03T11:47:48;21.30;99.90
27657;DHT22;15066;46.134;9.476;2022-09-03T11:50:23;21.50;99.90
27657;DHT22;15066;46.134;9.476;2022-09-03T11:52:48;21.60;99.90
27657;DHT22;15066;46.134;9.476;2022-09-03T11:55:31;21.70;99.90
27657;DHT22;15066;46.134;9.476;2022-09-03T11:58:18;21.70;99.90
27657;DHT22;15066;46.134;9.476;2022-09-03T12:00:47;21.70;99.90
27657;DHT22;15066;46.134;9.476;2022-09-03T12:03:16;21.70;99.90
27657;DHT22;15066;46.134;9.476;2022-09-03T12:06:01;21.70;99.90
27657;DHT22;15066;46.134;9.476;2022-09-03T12:09:42;21.70;99.90
27657;DHT22;15066;46.134;9.476;2022-09-03T12:14:36;21.90;99.90
27657;DHT22;15066;46.134;9.476;2022-09-03T12:19:54;22.00;99.90
27657;DHT22;15066;46.134;9.476;2022-09-03T12:22:25;22.00;99.90
27657;DHT22;15066;46.134;9.476;2022-09-03T12:24:55;22.10;99.90
27657;DHT22;15066;46.134;9.476;2022-09-03T12:27:25;22.10;99.00
27657;DHT22;15066;46.134;9.476;2022-09-03T12:30:02;22.20;98.50
27657;DHT22;15066;46.134;9.476;2022-09-03T12:32:32;22.30;96.20
27657;DHT22;15066;46.134;9.476;2022-09-03T12:35:14;22.30;96.50
27657;DHT22;15066;46.134;9.476;2022-09-03T12:37:38;22.30;94.50
27657;DHT22;15066;46.134;9.476;2022-09-03T12:40:15;22.40;96.00
27657;DHT22;15066;46.134;9.476;2022-09-03T12:42:37;22.50;96.40
27657;DHT22;15066;46.134;9.476;2022-09-03T12:45:06;22.50;94.80
27657;DHT22;15066;46.134;9.476;2022-09-03T12:47:40;22.50;94.60
27657;DHT22;15066;46.134;9.476;2022-09-03T12:50:13;22.50;94.80
27657;DHT22;15066;46.134;9.476;2022-09-03T12:53:00;22.40;96.00
27657;DHT22;15066;46.134;9.476;2022-09-03T12:55:47;22.40;96.40
27657;DHT22;15066;46.134;9.476;2022-09-03T12:58:32;22.30;95.50
27657;DHT22;15066;46.134;9.476;2022-09-03T13:01:23;22.30;94.80
27657;DHT22;15066;46.134;9.476;2022-09-03T13:06:32;22.20;95.00
27657;DHT22;15066;46.134;9.476;2022-09-03T13:09:01;22.20;95.70
27657;DHT22;15066;46.134;9.476;2022-09-03T13:11:34;22.10;93.60
27657;DHT22;15066;46.134;9.476;2022-09-03T13:14:05;22.10;93.90
27657;DHT22;15066;46.134;9.476;2022-09-03T13:16:51;22.10;95.50
27657;DHT22;15066;46.134;9.476;2022-09-03T13:19:39;22.10;96.20
27657;DHT22;15066;46.134;9.476;2022-09-03T13:22:34;22.20;95.50
27657;DHT22;15066;46.134;9.476;2022-09-03T13:30:47;22.20;92.30
27657;DHT22;15066;46.134;9.476;2022-09-03T13:36:08;22.20;91.80
27657;DHT22;15066;46.134;9.476;2022-09-03T13:38:38;22.30;91.50
27657;DHT22;15066;46.134;9.476;2022-09-03T13:41:30;22.30;90.80
27657;DHT22;15066;46.134;9.476;2022-09-03T13:46:46;22.30;90.20
27657;DHT22;15066;46.134;9.476;2022-09-03T13:49:20;22.20;91.00
27657;DHT22;15066;46.134;9.476;2022-09-03T13:52:07;22.30;90.60
27657;DHT22;15066;46.134;9.476;2022-09-03T13:54:38;22.40;90.00
27657;DHT22;15066;46.134;9.476;2022-09-03T13:57:07;22.40;88.40
27657;DHT22;15066;46.134;9.476;2022-09-03T14:02:42;22.60;90.30
27657;DHT22;15066;46.134;9.476;2022-09-03T14:08:16;22.70;89.10
27657;DHT22;15066;46.134;9.476;2022-09-03T14:15:59;22.70;87.30
27657;DHT22;15066;46.134;9.476;2022-09-03T14:18:45;22.70;90.20
27657;DHT22;15066;46.134;9.476;2022-09-03T14:21:38;22.60;91.30
27657;DHT22;15066;46.134;9.476;2022-09-03T14:24:19;22.70;92.10
27657;DHT22;15066;46.134;9.476;2022-09-03T14:26:56;22.80;90.80
27657;DHT22;15066;46.134;9.476;2022-09-03T14:29:29;22.90;89.70
27657;DHT22;15066;46.134;9.476;2022-09-03T14:32:50;22.90;85.60
27657;DHT22;15066;46.134;9.476;2022-09-03T14:40:43;22.90;87.00
27657;DHT22;15066;46.134;9.476;2022-09-03T14:46:08;22.90;87.20
27657;DHT22;15066;46.134;9.476;2022-09-03T14:54:17;22.90;85.60
27657;DHT22;15066;46.134;9.476;2022-09-03T14:57:30;22.80;83.80
27657;DHT22;15066;46.134;9.476;2022-09-03T14:59:47;22.90;85.70
27657;DHT22;15066;46.134;9.476;2022-09-03T15:08:05;22.80;83.10
27657;DHT22;15066;46.134;9.476;2022-09-03T15:10:45;22.80;84.00
27657;DHT22;15066;46.134;9.476;2022-09-03T15:13:24;22.70;84.10
27657;DHT22;15066;46.134;9.476;2022-09-03T15:18:58;22.60;85.40
27657;DHT22;15066;46.134;9.476;2022-09-03T15:21:39;22.60;88.50
27657;DHT22;15066;46.134;9.476;2022-09-03T15:24:13;22.70;88.90
27657;DHT22;15066;46.134;9.476;2022-09-03T15:32:21;22.80;85.90
27657;DHT22;15066;46.134;9.476;2022-09-03T15:35:05;22.90;87.70
27657;DHT22;15066;46.134;9.476;2022-09-03T15:37:43;22.90;86.60
27657;DHT22;15066;46.134;9.476;2022-09-03T15:43:09;22.90;82.30
27657;DHT22;15066;46.134;9.476;2022-09-03T15:53:53;23.20;85.70
27657;DHT22;15066;46.134;9.476;2022-09-03T15:59:22;23.30;87.00
27657;DHT22;15066;46.134;9.476;2022-09-03T16:02:07;23.30;80.00
27657;DHT22;15066;46.134;9.476;2022-09-03T16:05:04;23.40;80.30
27657;DHT22;15066;46.134;9.476;2022-09-03T16:10:19;23.40;80.70
27657;DHT22;15066;46.134;9.476;2022-09-03T16:16:02;23.40;83.30
27657;DHT22;15066;46.134;9.476;2022-09-03T16:21:13;23.30;87.10
27657;DHT22;15066;46.134;9.476;2022-09-03T16:23:53;23.30;85.80
27657;DHT22;15066;46.134;9.476;2022-09-03T16:26:29;23.30;85.10
27657;DHT22;15066;46.134;9.476;2022-09-03T16:29:02;23.30;84.40
27657;DHT22;15066;46.134;9.476;2022-09-03T16:31:55;23.20;86.10
27657;DHT22;15066;46.134;9.476;2022-09-03T16:37:27;23.10;84.90
27657;DHT22;15066;46.134;9.476;2022-09-03T16:43:03;23.00;86.30
27657;DHT22;15066;46.134;9.476;2022-09-03T16:50:54;22.80;88.40
27657;DHT22;15066;46.134;9.476;2022-09-03T16:53:24;22.80;89.00
27657;DHT22;15066;46.134;9.476;2022-09-03T17:01:22;22.60;90.10
27657;DHT22;15066;46.134;9.476;2022-09-03T17:07:00;22.40;88.40
27657;DHT22;15066;46.134;9.476;2022-09-03T17:23:12;22.00;90.30
27657;DHT22;15066;46.134;9.476;2022-09-03T17:25:57;21.90;90.30
27657;DHT22;15066;46.134;9.476;2022-09-03T17:31:15;21.90;91.40
27657;DHT22;15066;46.134;9.476;2022-09-03T17:36:47;21.60;92.10
27657;DHT22;15066;46.134;9.476;2022-09-03T17:41:54;21.60;93.60
27657;DHT22;15066;46.134;9.476;2022-09-03T17:47:23;21.50;94.80
27657;DHT22;15066;46.134;9.476;2022-09-03T17:49:44;21.60;95.50
27657;DHT22;15066;46.134;9.476;2022-09-03T17:54:56;21.50;95.20
27657;DHT22;15066;46.134;9.476;2022-09-03T18:00:11;21.30;95.80
27657;DHT22;15066;46.134;9.476;2022-09-03T18:02:50;21.30;96.10
27657;DHT22;15066;46.134;9.476;2022-09-03T18:05:28;21.40;96.60
27657;DHT22;15066;46.134;9.476;2022-09-03T18:10:56;21.30;97.50
27657;DHT22;15066;46.134;9.476;2022-09-03T18:13:50;21.10;98.00
27657;DHT22;15066;46.134;9.476;2022-09-03T18:16:25;21.00;98.70
27657;DHT22;15066;46.134;9.476;2022-09-03T18:19:13;21.00;99.10
27657;DHT22;15066;46.134;9.476;2022-09-03T18:21:40;21.00;99.30
27657;DHT22;15066;46.134;9.476;2022-09-03T18:27:43;20.90;99.10
27657;DHT22;15066;46.134;9.476;2022-09-03T18:30:28;20.90;98.80
27657;DHT22;15066;46.134;9.476;2022-09-03T18:33:15;20.90;98.60
27657;DHT22;15066;46.134;9.476;2022-09-03T18:36:01;20.90;99.00
27657;DHT22;15066;46.134;9.476;2022-09-03T18:38:47;20.90;99.30
27657;DHT22;15066;46.134;9.476;2022-09-03T18:57:00;20.70;99.90
27657;DHT22;15066;46.134;9.476;2022-09-03T19:00:07;20.60;99.90
27657;DHT22;15066;46.134;9.476;2022-09-03T19:03:09;20.50;99.90
27657;DHT22;15066;46.134;9.476;2022-09-03T19:06:16;20.60;99.90
27657;DHT22;15066;46.134;9.476;2022-09-03T19:12:43;20.60;99.90
27657;DHT22;15066;46.134;9.476;2022-09-03T19:15:30;20.50;99.90
27657;DHT22;15066;46.134;9.476;2022-09-03T19:21:38;20.40;99.90
27657;DHT22;15066;46.134;9.476;2022-09-03T19:24:27;20.40;99.90
27657;DHT22;15066;46.134;9.476;2022-09-03T19:27:39;20.40;99.90
27657;DHT22;15066;46.134;9.476;2022-09-03T19:40:01;20.40;99.90
27657;DHT22;15066;46.134;9.476;2022-09-03T19:45:44;20.20;99.90
27657;DHT22;15066;46.134;9.476;2022-09-03T19:51:45;19.90;99.90
27657;DHT22;15066;46.134;9.476;2022-09-03T19:54:09;19.90;99.90
27657;DHT22;15066;46.134;9.476;2022-09-03T19:56:56;19.90;99.90
27657;DHT22;15066;46.134;9.476;2022-09-03T19:59:44;20.00;99.90
27657;DHT22;15066;46.134;9.476;2022-09-03T20:02:30;20.00;99.90
27657;DHT22;15066;46.134;9.476;2022-09-03T20:05:22;19.80;99.90
27657;DHT22;15066;46.134;9.476;2022-09-03T20:08:05;19.80;99.90
27657;DHT22;15066;46.134;9.476;2022-09-03T20:10:54;19.70;99.90
27657;DHT22;15066;46.134;9.476;2022-09-03T20:13:21;19.80;99.90
27657;DHT22;15066;46.134;9.476;2022-09-03T20:18:39;19.90;99.90
27657;DHT22;15066;46.134;9.476;2022-09-03T20:21:42;19.80;99.90
27657;DHT22;15066;46.134;9.476;2022-09-03T20:29:55;19.80;99.90
27657;DHT22;15066;46.134;9.476;2022-09-03T20:32:40;19.70;99.90
27657;DHT22;15066;46.134;9.476;2022-09-03T20:37:40;19.60;99.90
27657;DHT22;15066;46.134;9.476;2022-09-03T20:40:34;19.60;99.90
27657;DHT22;15066;46.134;9.476;2022-09-03T20:48:33;19.70;99.90
27657;DHT22;15066;46.134;9.476;2022-09-03T20:51:00;19.70;99.90
27657;DHT22;15066;46.134;9.476;2022-09-03T21:01:56;19.50;99.90
27657;DHT22;15066;46.134;9.476;2022-09-03T21:07:18;19.60;99.90
27657;DHT22;15066;46.134;9.476;2022-09-03T21:12:44;19.60;99.90
27657;DHT22;15066;46.134;9.476;2022-09-03T21:18:15;19.60;99.90
27657;DHT22;15066;46.134;9.476;2022-09-03T21:26:12;19.60;99.90
27657;DHT22;15066;46.134;9.476;2022-09-03T21:28:45;19.70;99.90
27657;DHT22;15066;46.134;9.476;2022-09-03T21:31:25;19.60;99.90
27657;DHT22;15066;46.134;9.476;2022-09-03T21:33:57;19.60;99.90